Pechenga, Russia
Current Conditions -  °F | °C
As of 12:20 AM on Thursday 27 Nov 2014 (Local Time) from ENKR Reporting Station
Broken Clouds Broken Clouds  
Wind Chill: 17°   Ceiling: 3100
Heat Index: 25°   Visibility: 6mi
Dew Point: 23°   Wind: 7mph
Humidity: 93%   Direction: 170°S
Pressure: 30.06"   Gusts: NA
Location:  69.55°N, 31.23°E
Report Text: ENKR 262120Z 17006KT 9999 FEW015 BKN031 M04/M05 Q1018 RMK WIND 731FT 25006KT
Loading
Personal Weather Stations






























Interactive Weather Map New forecast layout! Learn more

10-Day Weather Forecast

Advertisements
Track Severe Weather on mobile